createdAt,value
2019-02-09T00:01:28.005Z,19.60
2019-02-09T00:03:58.221Z,19.60
2019-02-09T00:06:27.426Z,19.60
2019-02-09T00:08:56.621Z,19.60
2019-02-09T00:11:25.817Z,19.60
2019-02-09T00:13:55.041Z,19.60
2019-02-09T00:16:24.249Z,19.60
2019-02-09T00:18:53.679Z,19.60
2019-02-09T00:21:22.930Z,19.60
2019-02-09T00:23:52.110Z,19.60
2019-02-09T00:26:21.331Z,19.60
2019-02-09T00:28:50.566Z,19.60
2019-02-09T00:31:19.766Z,19.60
2019-02-09T00:33:48.984Z,19.60
2019-02-09T00:36:19.615Z,19.60
2019-02-09T00:38:48.809Z,19.70
2019-02-09T00:41:18.005Z,19.70
2019-02-09T00:43:47.172Z,19.70
2019-02-09T00:46:16.370Z,19.70
2019-02-09T00:48:45.641Z,19.70
2019-02-09T00:51:14.810Z,19.70
2019-02-09T00:53:44.066Z,19.70
2019-02-09T00:56:13.266Z,19.70
2019-02-09T00:58:42.430Z,19.70
2019-02-09T01:01:11.658Z,19.70
2019-02-09T01:03:40.819Z,19.70
2019-02-09T01:06:10.089Z,19.70
2019-02-09T01:08:39.313Z,19.70
2019-02-09T01:11:09.997Z,19.70
2019-02-09T01:13:39.230Z,19.70
2019-02-09T01:16:08.398Z,19.70
2019-02-09T01:18:37.611Z,19.70
2019-02-09T01:21:06.853Z,19.70
2019-02-09T01:23:36.039Z,19.70
2019-02-09T01:26:05.541Z,19.70
2019-02-09T01:28:34.733Z,19.70
2019-02-09T01:31:03.936Z,19.70
2019-02-09T01:33:33.185Z,19.70
2019-02-09T01:36:02.423Z,19.70
2019-02-09T01:38:31.622Z,19.60
2019-02-09T01:41:00.849Z,19.60
2019-02-09T01:43:30.039Z,19.60
2019-02-09T01:45:59.466Z,19.60
2019-02-09T01:48:28.922Z,19.60
2019-02-09T01:50:58.087Z,19.60
2019-02-09T01:53:27.298Z,19.60
2019-02-09T01:55:56.521Z,19.60
2019-02-09T01:58:25.618Z,19.60
2019-02-09T02:00:54.883Z,19.60
2019-02-09T02:03:24.030Z,19.60
2019-02-09T02:05:53.250Z,19.60
2019-02-09T02:08:23.765Z,19.60
2019-02-09T02:10:52.943Z,19.60
2019-02-09T02:13:22.579Z,19.60
2019-02-09T02:15:51.749Z,19.60
2019-02-09T02:18:20.879Z,19.60
2019-02-09T02:20:50.129Z,19.70
2019-02-09T02:23:19.357Z,19.70
2019-02-09T02:25:48.537Z,19.70
2019-02-09T02:28:17.649Z,19.70
2019-02-09T02:30:46.766Z,19.70
2019-02-09T02:33:15.981Z,19.70
2019-02-09T02:35:45.228Z,19.70
2019-02-09T02:38:14.421Z,19.70
2019-02-09T02:40:43.581Z,19.70
2019-02-09T02:43:12.802Z,19.70
2019-02-09T02:45:42.003Z,19.70
2019-02-09T02:48:11.210Z,19.70
2019-02-09T02:50:40.495Z,19.70
2019-02-09T02:53:09.674Z,19.70
2019-02-09T02:55:38.889Z,19.70
2019-02-09T02:58:08.085Z,19.70
2019-02-09T03:00:37.281Z,19.70
2019-02-09T03:03:06.493Z,19.60
2019-02-09T03:05:35.670Z,19.60
2019-02-09T03:08:05.047Z,19.60
2019-02-09T03:10:34.272Z,19.60
2019-02-09T03:13:03.448Z,19.60
2019-02-09T03:15:32.671Z,19.60
2019-02-09T03:18:01.899Z,19.60
2019-02-09T03:20:31.116Z,19.60
2019-02-09T03:23:00.338Z,19.60
2019-02-09T03:25:31.278Z,19.60
2019-02-09T03:28:00.491Z,19.60
2019-02-09T03:30:30.414Z,19.60
2019-02-09T03:32:59.713Z,19.60
2019-02-09T03:35:29.027Z,19.60
2019-02-09T03:37:58.242Z,19.60
2019-02-09T03:40:27.463Z,19.60
2019-02-09T03:42:56.641Z,19.60
2019-02-09T03:45:27.602Z,19.60
2019-02-09T03:47:56.711Z,19.60
2019-02-09T03:50:27.166Z,19.60
2019-02-09T03:52:56.350Z,19.60
2019-02-09T03:55:25.582Z,19.60
2019-02-09T03:57:54.761Z,19.60
2019-02-09T04:00:25.492Z,19.70
2019-02-09T04:02:54.752Z,19.70
2019-02-09T04:05:23.962Z,19.70
2019-02-09T04:07:53.186Z,19.70
2019-02-09T04:10:23.431Z,19.70
2019-02-09T04:12:52.658Z,19.70
2019-02-09T04:15:22.782Z,19.70
2019-02-09T04:17:52.021Z,19.70
2019-02-09T04:20:21.855Z,19.70
2019-02-09T04:22:51.132Z,19.70
2019-02-09T04:25:20.294Z,19.70
2019-02-09T04:27:49.435Z,19.70
2019-02-09T04:30:29.394Z,19.70
2019-02-09T04:32:58.574Z,19.70
2019-02-09T04:35:27.794Z,19.70
2019-02-09T04:37:57.030Z,19.60
2019-02-09T04:40:28.218Z,19.60
2019-02-09T04:42:57.372Z,19.60
2019-02-09T04:45:26.611Z,19.60
2019-02-09T04:47:55.874Z,19.60
2019-02-09T04:50:25.081Z,19.60
2019-02-09T04:52:54.566Z,19.60
2019-02-09T04:55:24.584Z,19.60
2019-02-09T04:57:53.853Z,19.60
2019-02-09T05:00:24.857Z,19.60
2019-02-09T05:02:54.039Z,19.60
2019-02-09T05:05:23.210Z,19.60
2019-02-09T05:07:52.385Z,19.50
2019-02-09T05:10:21.700Z,19.50
2019-02-09T05:12:50.906Z,19.50
2019-02-09T05:15:20.941Z,19.50
2019-02-09T05:17:50.152Z,19.60
2019-02-09T05:20:20.618Z,19.50
2019-02-09T05:22:49.873Z,19.50
2019-02-09T05:25:19.121Z,19.50
2019-02-09T05:27:48.235Z,19.50
2019-02-09T05:30:19.786Z,19.50
2019-02-09T05:32:49.043Z,19.60
2019-02-09T05:35:18.258Z,19.60
2019-02-09T05:37:47.481Z,19.60
2019-02-09T05:40:18.389Z,19.60
2019-02-09T05:42:47.545Z,19.70
2019-02-09T05:45:18.821Z,19.70
2019-02-09T05:47:47.927Z,19.70
2019-02-09T05:50:18.203Z,19.70
2019-02-09T05:52:47.509Z,19.70
2019-02-09T05:55:17.045Z,19.70
2019-02-09T05:57:46.237Z,19.70
2019-02-09T06:00:32.411Z,19.70
2019-02-09T06:03:01.645Z,19.70
2019-02-09T06:05:31.075Z,19.70
2019-02-09T06:08:00.205Z,19.70
2019-02-09T06:10:29.417Z,19.60
2019-02-09T06:12:58.590Z,19.60
2019-02-09T06:15:27.804Z,19.60
2019-02-09T06:17:57.016Z,19.60
2019-02-09T06:20:26.746Z,19.60
2019-02-09T06:22:55.931Z,19.60
2019-02-09T06:25:25.117Z,19.60
2019-02-09T06:27:54.325Z,19.60
2019-02-09T06:30:25.181Z,19.60
2019-02-09T06:32:54.343Z,19.60
2019-02-09T06:35:23.735Z,19.60
2019-02-09T06:37:52.954Z,19.60
2019-02-09T06:40:22.230Z,19.60
2019-02-09T06:42:51.452Z,19.60
2019-02-09T06:45:21.726Z,19.60
2019-02-09T06:47:51.017Z,19.60
2019-02-09T06:50:30.270Z,19.60
2019-02-09T06:52:59.486Z,19.60
2019-02-09T06:55:28.706Z,19.50
2019-02-09T06:57:57.908Z,19.60
2019-02-09T07:00:27.085Z,19.60
2019-02-09T07:02:56.298Z,19.60
2019-02-09T07:05:25.493Z,19.60
2019-02-09T07:07:54.634Z,19.60
2019-02-09T07:10:24.243Z,19.60
2019-02-09T07:12:53.573Z,19.60
2019-02-09T07:15:27.391Z,19.70
2019-02-09T07:17:56.665Z,19.70
2019-02-09T07:20:25.830Z,19.70
2019-02-09T07:22:55.057Z,19.70
2019-02-09T07:25:24.458Z,19.70
2019-02-09T07:27:53.670Z,19.70
2019-02-09T07:30:24.817Z,19.70
2019-02-09T07:32:54.034Z,19.70
2019-02-09T07:35:23.242Z,19.80
2019-02-09T07:37:52.426Z,19.80
2019-02-09T07:40:22.593Z,19.80
2019-02-09T07:42:52.117Z,19.80
2019-02-09T07:45:23.881Z,19.80
2019-02-09T07:47:53.093Z,19.70
2019-02-09T07:50:24.234Z,19.70
2019-02-09T07:52:53.598Z,19.70
2019-02-09T07:55:23.399Z,19.70
2019-02-09T07:57:52.602Z,19.70
2019-02-09T08:00:23.836Z,19.70
2019-02-09T08:02:52.998Z,19.70
2019-02-09T08:05:22.939Z,19.70
2019-02-09T08:07:52.154Z,19.70
2019-02-09T08:10:23.322Z,19.60
2019-02-09T08:12:52.553Z,19.60
2019-02-09T08:15:23.371Z,19.60
2019-02-09T08:17:52.569Z,19.60
2019-02-09T08:20:22.927Z,19.60
2019-02-09T08:22:52.277Z,19.60
2019-02-09T08:25:23.395Z,19.60
2019-02-09T08:27:52.586Z,19.60
2019-02-09T08:30:26.930Z,19.60
2019-02-09T08:32:56.147Z,19.60
2019-02-09T08:35:25.338Z,19.60
2019-02-09T08:37:54.474Z,19.60
2019-02-09T08:40:23.707Z,19.60
2019-02-09T08:42:52.926Z,19.60
2019-02-09T08:45:22.517Z,19.60
2019-02-09T08:47:51.741Z,19.70
2019-02-09T08:50:26.295Z,19.70
2019-02-09T08:52:55.537Z,19.70
2019-02-09T08:55:24.714Z,19.70
2019-02-09T08:57:53.990Z,19.70
2019-02-09T09:00:25.252Z,19.70
2019-02-09T09:02:54.463Z,19.70
2019-02-09T09:05:23.619Z,19.80
2019-02-09T09:07:52.817Z,19.70
2019-02-09T09:10:23.038Z,19.70
2019-02-09T09:12:52.258Z,19.70
2019-02-09T09:15:27.158Z,19.70
2019-02-09T09:17:56.331Z,19.70
2019-02-09T09:20:28.261Z,19.70
2019-02-09T09:22:57.453Z,19.60
2019-02-09T09:25:26.736Z,19.60
2019-02-09T09:27:55.909Z,19.60
2019-02-09T09:30:26.357Z,19.60
2019-02-09T09:32:55.519Z,19.60
2019-02-09T09:35:24.690Z,19.70
2019-02-09T09:37:53.910Z,19.70
2019-02-09T09:40:25.471Z,19.70
2019-02-09T09:42:54.634Z,19.70
2019-02-09T09:45:26.102Z,19.70
2019-02-09T09:47:55.353Z,19.70
2019-02-09T09:50:24.694Z,19.70
2019-02-09T09:52:53.904Z,19.80
2019-02-09T09:55:23.094Z,19.80
2019-02-09T09:57:52.309Z,19.80
2019-02-09T10:00:21.616Z,19.80
2019-02-09T10:02:50.778Z,19.80
2019-02-09T10:05:20.168Z,19.80
2019-02-09T10:07:49.365Z,19.80
2019-02-09T10:10:19.002Z,19.80
2019-02-09T10:12:49.118Z,19.80
2019-02-09T10:15:20.293Z,19.80
2019-02-09T10:17:49.557Z,19.80
2019-02-09T10:20:20.471Z,19.80
2019-02-09T10:22:49.725Z,19.80
2019-02-09T10:25:19.170Z,19.80
2019-02-09T10:27:48.375Z,19.70
2019-02-09T10:30:22.540Z,19.70
2019-02-09T10:32:51.786Z,19.70
2019-02-09T10:35:22.732Z,19.70
2019-02-09T10:37:51.911Z,19.70
2019-02-09T10:40:31.494Z,19.70
2019-02-09T10:43:00.689Z,19.70
2019-02-09T10:45:33.397Z,19.70
2019-02-09T10:48:02.616Z,19.70
2019-02-09T10:50:33.890Z,19.70
2019-02-09T10:53:03.122Z,19.70
2019-02-09T10:55:32.312Z,19.70
2019-02-09T10:58:01.598Z,19.70
2019-02-09T11:00:36.739Z,19.70
2019-02-09T11:03:06.345Z,19.70
2019-02-09T11:05:35.548Z,19.70
2019-02-09T11:08:05.479Z,19.70
2019-02-09T11:10:34.705Z,19.70
2019-02-09T11:13:04.050Z,19.70
2019-02-09T11:15:33.310Z,19.70
2019-02-09T11:18:02.580Z,19.70
2019-02-09T11:20:31.727Z,19.80
2019-02-09T11:23:01.002Z,19.80
2019-02-09T11:25:30.299Z,19.80
2019-02-09T11:27:59.526Z,19.80
2019-02-09T11:30:29.433Z,19.80
2019-02-09T11:33:02.075Z,19.80
2019-02-09T11:35:29.982Z,19.80
2019-02-09T11:37:59.240Z,19.80
2019-02-09T11:40:28.505Z,19.80
2019-02-09T11:42:57.796Z,19.80
2019-02-09T11:45:28.093Z,19.80
2019-02-09T11:47:57.322Z,19.80
2019-02-09T11:50:26.622Z,19.80
2019-02-09T11:52:55.834Z,19.80
2019-02-09T11:55:24.968Z,19.80
2019-02-09T11:57:54.279Z,19.80
2019-02-09T12:00:28.730Z,19.80
2019-02-09T12:03:03.867Z,19.80
2019-02-09T12:05:28.855Z,19.90
2019-02-09T12:07:58.054Z,19.90
2019-02-09T12:10:27.348Z,19.90
2019-02-09T12:12:56.631Z,20.00
2019-02-09T12:15:31.141Z,20.00
2019-02-09T12:18:00.501Z,20.00
2019-02-09T12:20:29.692Z,20.00
2019-02-09T12:22:58.941Z,20.00
2019-02-09T12:25:30.298Z,20.00
2019-02-09T12:27:59.548Z,20.00
2019-02-09T12:30:30.508Z,20.00
2019-02-09T12:32:59.811Z,20.00
2019-02-09T12:35:29.137Z,20.00
2019-02-09T12:37:59.299Z,20.00
2019-02-09T12:40:30.163Z,20.00
2019-02-09T12:42:59.508Z,20.00
2019-02-09T12:45:29.106Z,20.00
2019-02-09T12:47:58.396Z,20.00
2019-02-09T12:50:27.803Z,20.00
2019-02-09T12:52:57.074Z,20.00
2019-02-09T12:55:26.319Z,20.10
2019-02-09T12:57:55.566Z,20.10
2019-02-09T13:00:32.594Z,20.10
2019-02-09T13:03:10.325Z,20.10
2019-02-09T13:05:39.640Z,20.10
2019-02-09T13:08:08.909Z,20.10
2019-02-09T13:10:38.166Z,20.10
2019-02-09T13:13:07.407Z,20.10
2019-02-09T13:15:36.733Z,20.10
2019-02-09T13:18:06.053Z,20.10
2019-02-09T13:20:35.300Z,20.10
2019-02-09T13:23:04.943Z,20.10
2019-02-09T13:25:34.285Z,20.10
2019-02-09T13:28:03.581Z,20.10
2019-02-09T13:30:32.930Z,20.20
2019-02-09T13:33:02.167Z,20.10
2019-02-09T13:35:31.538Z,20.10
2019-02-09T13:38:00.871Z,20.10
2019-02-09T13:40:30.110Z,20.10
2019-02-09T13:42:59.777Z,20.10
2019-02-09T13:45:34.404Z,20.10
2019-02-09T13:48:06.193Z,20.10
2019-02-09T13:50:36.566Z,20.10
2019-02-09T13:53:06.787Z,20.10
2019-02-09T13:55:36.042Z,20.10
2019-02-09T13:58:05.356Z,20.10
2019-02-09T14:00:34.645Z,20.10
2019-02-09T14:03:04.014Z,20.10
2019-02-09T14:05:34.095Z,20.10
2019-02-09T14:08:03.390Z,20.10
2019-02-09T14:10:32.878Z,20.10
2019-02-09T14:13:02.089Z,20.10
2019-02-09T14:15:33.190Z,20.10
2019-02-09T14:18:03.330Z,20.10
2019-02-09T14:20:32.519Z,20.10
2019-02-09T14:23:01.753Z,20.10
2019-02-09T14:25:30.893Z,20.10
2019-02-09T14:28:01.814Z,20.10
2019-02-09T14:30:32.635Z,20.10
2019-02-09T14:33:03.090Z,20.00
2019-02-09T14:35:32.297Z,20.00
2019-02-09T14:38:01.593Z,20.10
2019-02-09T14:40:31.946Z,20.10
2019-02-09T14:43:01.251Z,20.10
2019-02-09T14:45:35.032Z,20.10
2019-02-09T14:48:04.420Z,20.10
2019-02-09T14:50:35.938Z,20.10
2019-02-09T14:53:06.041Z,20.10
2019-02-09T14:55:36.562Z,20.10
2019-02-09T14:58:05.899Z,20.20
2019-02-09T15:00:38.071Z,20.20
2019-02-09T15:03:08.164Z,20.20
2019-02-09T15:05:38.098Z,20.20
2019-02-09T15:08:07.798Z,20.20
2019-02-09T15:10:37.046Z,20.30
2019-02-09T15:13:07.168Z,20.30
2019-02-09T15:15:43.385Z,20.30
2019-02-09T15:18:12.690Z,20.30
2019-02-09T15:20:45.753Z,20.30
2019-02-09T15:23:15.114Z,20.30
2019-02-09T15:25:44.438Z,20.30
2019-02-09T15:28:13.823Z,20.30
2019-02-09T15:30:43.090Z,20.30
2019-02-09T15:33:12.403Z,20.30
2019-02-09T15:35:41.630Z,20.30
2019-02-09T15:38:10.901Z,20.30
2019-02-09T15:40:40.178Z,20.30
2019-02-09T15:43:09.403Z,20.30
2019-02-09T15:45:39.033Z,20.30
2019-02-09T15:48:08.352Z,20.30
2019-02-09T15:50:37.578Z,20.30
2019-02-09T15:53:06.824Z,20.20
2019-02-09T15:55:36.183Z,20.20
2019-02-09T15:58:05.420Z,20.20
2019-02-09T16:00:34.772Z,20.20
2019-02-09T16:03:04.019Z,20.20
2019-02-09T16:05:33.687Z,20.10
2019-02-09T16:08:03.018Z,20.10
2019-02-09T16:10:32.279Z,20.10
2019-02-09T16:13:01.571Z,20.10
2019-02-09T16:15:30.859Z,20.10
2019-02-09T16:18:00.210Z,20.10
2019-02-09T16:20:29.553Z,20.20
2019-02-09T16:22:58.838Z,20.20
2019-02-09T16:25:28.076Z,20.20
2019-02-09T16:27:57.282Z,20.20
2019-02-09T16:30:26.914Z,20.20
2019-02-09T16:32:56.135Z,20.20
2019-02-09T16:35:25.487Z,20.20
2019-02-09T16:37:54.679Z,20.20
2019-02-09T16:40:25.705Z,20.20
2019-02-09T16:42:54.940Z,20.20
2019-02-09T16:45:26.329Z,20.20
2019-02-09T16:47:55.561Z,20.20
2019-02-09T16:50:24.746Z,20.20
2019-02-09T16:52:54.253Z,20.20
2019-02-09T16:55:23.499Z,20.20
2019-02-09T16:57:52.739Z,20.20
2019-02-09T17:00:27.385Z,20.10
2019-02-09T17:02:56.990Z,20.10
2019-02-09T17:05:26.254Z,20.10
2019-02-09T17:07:55.502Z,20.10
2019-02-09T17:10:24.686Z,20.10
2019-02-09T17:12:53.941Z,20.10
2019-02-09T17:15:25.006Z,20.10
2019-02-09T17:17:54.307Z,20.10
2019-02-09T17:20:23.518Z,20.00
2019-02-09T17:22:52.768Z,20.00
2019-02-09T17:25:22.033Z,20.00
2019-02-09T17:27:51.257Z,20.00
2019-02-09T17:30:22.438Z,20.00
2019-02-09T17:32:51.722Z,20.00
2019-02-09T17:35:20.934Z,20.00
2019-02-09T17:37:50.198Z,20.00
2019-02-09T17:40:24.736Z,20.10
2019-02-09T17:42:53.942Z,20.10
2019-02-09T17:45:28.850Z,20.10
2019-02-09T17:47:58.061Z,20.10
2019-02-09T17:50:27.287Z,20.10
2019-02-09T17:52:56.518Z,20.10
2019-02-09T17:55:25.715Z,20.10
2019-02-09T17:57:54.942Z,20.10
2019-02-09T18:00:43.266Z,20.20
2019-02-09T18:03:12.493Z,20.20
2019-02-09T18:05:42.124Z,20.20
2019-02-09T18:08:12.355Z,20.20
2019-02-09T18:10:41.551Z,20.20
2019-02-09T18:13:10.819Z,20.20
2019-02-09T18:15:40.809Z,20.20
2019-02-09T18:18:10.003Z,20.20
2019-02-09T18:20:39.535Z,20.20
2019-02-09T18:23:08.726Z,20.20
2019-02-09T18:25:37.854Z,20.20
2019-02-09T18:28:07.066Z,20.10
2019-02-09T18:30:36.295Z,20.10
2019-02-09T18:33:05.562Z,20.10
2019-02-09T18:35:34.760Z,20.10
2019-02-09T18:38:03.994Z,20.10
2019-02-09T18:40:33.138Z,20.10
2019-02-09T18:43:02.326Z,20.10
2019-02-09T18:45:31.569Z,20.10
2019-02-09T18:48:00.801Z,20.10
2019-02-09T18:50:29.999Z,20.10
2019-02-09T18:52:59.353Z,20.20
2019-02-09T18:55:30.384Z,20.20
2019-02-09T18:58:05.242Z,20.20
2019-02-09T19:00:34.457Z,20.20
2019-02-09T19:03:03.661Z,20.20
2019-02-09T19:05:33.306Z,20.30
2019-02-09T19:08:02.516Z,20.30
2019-02-09T19:10:31.795Z,20.30
2019-02-09T19:13:00.904Z,20.30
2019-02-09T19:15:30.083Z,20.30
2019-02-09T19:17:59.383Z,20.30
2019-02-09T19:20:39.828Z,20.30
2019-02-09T19:23:10.375Z,20.30
2019-02-09T19:25:39.703Z,20.30
2019-02-09T19:28:08.965Z,20.30
2019-02-09T19:30:41.239Z,20.30
2019-02-09T19:33:10.481Z,20.30
2019-02-09T19:35:47.540Z,20.30
2019-02-09T19:38:16.772Z,20.30
2019-02-09T19:40:45.986Z,20.30
2019-02-09T19:43:15.820Z,20.30
2019-02-09T19:45:45.022Z,20.30
2019-02-09T19:48:14.297Z,20.30
2019-02-09T19:50:43.484Z,20.30
2019-02-09T19:53:12.735Z,20.30
2019-02-09T19:55:42.260Z,20.40
2019-02-09T19:58:11.598Z,20.40
2019-02-09T20:00:42.688Z,20.40
2019-02-09T20:03:11.914Z,20.40
2019-02-09T20:05:41.086Z,20.40
2019-02-09T20:08:10.346Z,20.40
2019-02-09T20:10:39.971Z,20.40
2019-02-09T20:13:09.936Z,20.40
2019-02-09T20:15:39.129Z,20.40
2019-02-09T20:18:08.746Z,20.40
2019-02-09T20:20:37.984Z,20.40
2019-02-09T20:23:07.230Z,20.40
2019-02-09T20:25:36.404Z,20.40
2019-02-09T20:28:05.748Z,20.40
2019-02-09T20:30:35.334Z,20.40
2019-02-09T20:33:04.581Z,20.30
2019-02-09T20:35:33.822Z,20.30
2019-02-09T20:38:03.162Z,20.30
2019-02-09T20:40:44.195Z,20.30
2019-02-09T20:43:15.226Z,20.30
2019-02-09T20:45:44.731Z,20.30
2019-02-09T20:48:13.974Z,20.30
2019-02-09T20:50:43.179Z,20.30
2019-02-09T20:53:12.409Z,20.30
2019-02-09T20:55:41.618Z,20.30
2019-02-09T20:58:12.279Z,20.30
2019-02-09T21:00:41.513Z,20.20
2019-02-09T21:03:10.767Z,20.20
2019-02-09T21:05:40.056Z,20.20
2019-02-09T21:08:09.336Z,20.30
2019-02-09T21:10:39.637Z,20.30
2019-02-09T21:13:08.762Z,20.30
2019-02-09T21:15:38.008Z,20.30
2019-02-09T21:18:07.729Z,20.30
2019-02-09T21:20:37.232Z,20.30
2019-02-09T21:23:06.793Z,20.40
2019-02-09T21:25:38.581Z,20.40
2019-02-09T21:28:07.865Z,20.30
2019-02-09T21:30:37.110Z,20.30
2019-02-09T21:33:06.763Z,20.30
2019-02-09T21:35:43.485Z,20.40
2019-02-09T21:38:06.882Z,20.40
2019-02-09T21:40:36.145Z,20.40
2019-02-09T21:43:05.481Z,20.40
2019-02-09T21:45:35.061Z,20.40
2019-02-09T21:48:04.391Z,20.40
2019-02-09T21:50:37.955Z,20.40
2019-02-09T21:53:12.443Z,20.40
2019-02-09T21:55:41.678Z,20.40
2019-02-09T21:58:10.967Z,20.40
2019-02-09T22:00:41.994Z,20.40
2019-02-09T22:03:12.330Z,20.40
2019-02-09T22:05:42.053Z,20.40
2019-02-09T22:08:19.198Z,20.40
2019-02-09T22:10:44.010Z,20.40
2019-02-09T22:13:13.674Z,20.40
2019-02-09T22:15:42.941Z,20.40
2019-02-09T22:18:12.245Z,20.40
2019-02-09T22:20:41.494Z,20.30
2019-02-09T22:23:10.773Z,20.30
2019-02-09T22:25:39.967Z,20.30
2019-02-09T22:28:09.536Z,20.30
2019-02-09T22:30:38.808Z,20.30
2019-02-09T22:33:08.174Z,20.30
2019-02-09T22:35:37.446Z,20.30
2019-02-09T22:38:06.660Z,20.30
2019-02-09T22:40:36.770Z,20.30
2019-02-09T22:43:06.369Z,20.30
2019-02-09T22:45:35.592Z,20.30
2019-02-09T22:48:05.418Z,20.30
2019-02-09T22:50:41.862Z,20.30
2019-02-09T22:53:11.138Z,20.40
2019-02-09T22:55:40.385Z,20.40
2019-02-09T22:58:09.600Z,20.40
2019-02-09T23:00:58.850Z,20.40
2019-02-09T23:03:43.945Z,20.40
2019-02-09T23:06:57.305Z,20.40
2019-02-09T23:09:37.666Z,20.30
2019-02-09T23:12:07.510Z,20.30
2019-02-09T23:14:36.671Z,20.30
2019-02-09T23:17:05.882Z,20.30
2019-02-09T23:19:41.189Z,20.30
2019-02-09T23:22:10.359Z,20.30
2019-02-09T23:24:39.553Z,20.30
2019-02-09T23:27:08.733Z,20.30
2019-02-09T23:29:37.966Z,20.30
2019-02-09T23:32:07.195Z,20.30
2019-02-09T23:34:36.392Z,20.30
2019-02-09T23:37:05.591Z,20.30
2019-02-09T23:39:35.922Z,20.30
2019-02-09T23:42:05.606Z,20.20
2019-02-09T23:44:35.986Z,20.30
2019-02-09T23:47:05.196Z,20.30
2019-02-09T23:49:34.403Z,20.30
2019-02-09T23:52:03.644Z,20.30
2019-02-09T23:54:32.935Z,20.30
2019-02-09T23:57:02.158Z,20.30
2019-02-09T23:59:31.413Z,20.30
